Lac La Biche, Alberta

Conditions des dernières 24 heures

Date / Heure
(HAR)
Conditions Temp
(°C)
Humidité
(%)
Point de rosée
(°C)
Vent
(km/h)
Pression
(kPa)
Visibilité
(km)
05 septembre 2015
6:00 N.D. 6 97 6 calme 102,3 N.D.
5:00 N.D. 6 97 6 SSO 2 102,3 N.D.
4:00 N.D. 6 97 6 calme 102,3 N.D.
3:00 N.D. 5 98 5 calme 102,4 N.D.
2:00 N.D. 3   96 3 calme 102,4 N.D.
1:00 N.D. 4 92 3 calme 102,4 N.D.
0:00 N.D. 5 95 4 calme 102,4 N.D.
04 septembre 2015
23:00 N.D. 7 94 6 SSE 3 102,4 N.D.
22:00 N.D. 8 83 5 calme 102,4 N.D.
21:00 N.D. 10 76 6 SSO 2 102,4 N.D.
20:00 N.D. 11 65 5 calme 102,3 N.D.
19:00 N.D. 12   61 4 NE 4 102,3 N.D.
18:00 N.D. 12   58 4 NNE 4 102,3 N.D.
17:00 N.D. 12   61 5 NE 5 102,3 N.D.
16:00 N.D. 12   56 4 NO 5 102,3 N.D.
15:00 N.D. 12   60 4 N 10 102,3 N.D.
14:00 N.D. 11 64 4 NNE 10 102,3 N.D.
13:00 N.D. 11 63 4 NNO 8 102,3 N.D.
12:00 N.D. 10 67 4 NO 8 102,3 N.D.
11:00 N.D. 9 67 4 NNO 9 102,3 N.D.
10:00 N.D. 8 77 5 ONO 11 102,3 N.D.
9:00 N.D. 8 82 5 N 4 102,2 N.D.
8:00 N.D. 6 93 5 ONO 5 102,2 N.D.
7:00 N.D. 6 95 5 NO 6 102,2 N.D.
6:00 N.D. 6 94 5 NNO 5 102,1 N.D.
N.D. non disponible
↑ température la plus haute
↓ température la plus basse

Si vous désirez plus de données historiques sur les conditions météo, s.v.p. visitez Données climatologiques en ligne.

Ce que nous faisons

Date de modification :